Del Norte, CO

12:54 AM MDT on September 26, 2016 (GMT -0600)
Wolf Creek Pass

Weather History for KCPW - January, 2013

Change the Weather History Date:

Thursday, January 17, 2013

  Actual Average (KALS) Record (KALS)
Temperature  
Mean Temperature 20 °F 16 °F  
Max Temperature 26 °F 34 °F 55 °F (2000)
Min Temperature 14 °F -2 °F -32 °F (2008)
Degree Days  
Heating Degree Days 45 49  
Month to date heating degree days 833  
Since 1 July heating degree days 4470  
Cooling Degree Days 0 0  
Month to date cooling degree days 0  
Year to date cooling degree days 0  
Moisture  
Dew Point 12 °F    
Average Humidity 72    
Maximum Humidity 86    
Minimum Humidity 63    
Precipitation  
Precipitation 0.00 in 0.01 in 0.21 in (1956)
Month to date precipitation 0.13  
Year to date precipitation 0.13  
Snow  
Snow 0.00 in 0.20 in 3.20 in (1956)
Month to date snowfall 2.0  
Since 1 July snowfall 12.3  
Snow Depth -    
Sea Level Pressure  
Sea Level Pressure 30.43 in    
Wind  
Wind Speed 10 mph (SW)    
Max Wind Speed 18 mph    
Max Gust Speed 18 mph    
Visibility 10 miles    
Events      
T = Trace of Precipitation, MM = Missing Value Source: NWS Daily Summary

Daily Weather History Graph

Daily Weather History Graph

Search for Another Location

Airport or City:

Trip Planner

Search our weather history database for the weather conditions in past years. The results will help you decide how hot, cold, wet, or windy it might be!

Date:

Astronomy

Jan. 17, 2013 Rise Set
Actual Time 7:19 AM MST 5:15 PM MST
Civil Twilight 6:51 AM MST 5:43 PM MST
Nautical Twilight 6:19 AM MST 6:15 PM MST
Astronomical Twilight 5:48 AM MST 6:47 PM MST
Moon 10:37 AM MST (1/17) 11:59 PM MST (1/17)
Length of Visible Light 10h 52m
Length of Day
9h 55m
Waxing Crescent, 38% of the Moon is Illuminated
Jan 17
Waxing Crescent
Jan 18
First Quarter
Jan 26
Full
Feb 3
Last Quarter
Feb 10
New

Hourly Weather History & Observations

Time (MST) Temp. Windchill Dew Point Humidity Pressure Visibility Wind Dir Wind Speed Gust Speed Precip Events Conditions
12:06 AM 21.2 °F 11.7 °F 10.4 °F 63% 30.39 in 10.0 mi NE 8.1 mph - N/A   Clear
12:22 AM 21.2 °F 16.4 °F 10.4 °F 63% 30.39 in 10.0 mi ENE 3.5 mph - N/A   Clear
12:48 AM 21.2 °F - 10.4 °F 63% 30.40 in 10.0 mi Calm Calm - N/A   Clear
1:08 AM 21.2 °F - 10.4 °F 63% 30.41 in 10.0 mi Calm Calm - N/A   Clear
1:45 AM 21.2 °F - 10.4 °F 63% 30.41 in 10.0 mi Calm Calm - N/A   Clear
2:05 AM 21.2 °F 16.4 °F 12.2 °F 68% 30.41 in 10.0 mi SW 3.5 mph - N/A   Clear
2:47 AM 19.4 °F 10.4 °F 12.2 °F 74% 30.42 in 10.0 mi SW 6.9 mph - N/A   Clear
3:06 AM 17.6 °F 6.4 °F 12.2 °F 79% 30.42 in 10.0 mi SW 9.2 mph - N/A   Clear
3:28 AM 17.6 °F 4.3 °F 12.2 °F 79% 30.42 in 10.0 mi SW 12.7 mph - N/A   Clear
3:48 AM 17.6 °F 4.3 °F 10.4 °F 73% 30.41 in 10.0 mi SW 12.7 mph - N/A   Clear
4:07 AM 17.6 °F 4.3 °F 10.4 °F 73% 30.42 in 10.0 mi SW 12.7 mph - N/A   Clear
4:27 AM 17.6 °F 3.7 °F 10.4 °F 73% 30.41 in 10.0 mi SW 13.8 mph - N/A   Clear
4:45 AM 17.6 °F 3.7 °F 10.4 °F 73% 30.41 in 10.0 mi SW 13.8 mph - N/A   Clear
5:07 AM 17.6 °F 5.0 °F 10.4 °F 73% 30.41 in 10.0 mi SW 11.5 mph - N/A   Scattered Clouds
5:27 AM 17.6 °F 6.4 °F 10.4 °F 73% 30.41 in 10.0 mi SW 9.2 mph - N/A   Scattered Clouds
5:47 AM 17.6 °F 5.7 °F 10.4 °F 73% 30.41 in 10.0 mi WSW 10.4 mph - N/A   Scattered Clouds
6:04 AM 19.4 °F 7.9 °F 10.4 °F 68% 30.41 in 10.0 mi WSW 10.4 mph - N/A   Scattered Clouds
6:28 AM 19.4 °F 8.6 °F 10.4 °F 68% 30.42 in 10.0 mi WSW 9.2 mph - N/A   Mostly Cloudy
6:45 AM 19.4 °F 8.6 °F 10.4 °F 68% 30.42 in 10.0 mi WSW 9.2 mph - N/A   Overcast
6:59 AM 17.6 °F 6.4 °F 10.4 °F 73% 30.42 in 10.0 mi WSW 9.2 mph - N/A   Mostly Cloudy
7:25 AM 19.4 °F 6.6 °F 12.2 °F 74% 30.42 in 10.0 mi SW 12.7 mph - N/A   Clear
7:48 AM 17.6 °F 4.3 °F 10.4 °F 73% 30.43 in 10.0 mi SW 12.7 mph - N/A   Mostly Cloudy
8:08 AM 17.6 °F 4.3 °F 10.4 °F 73% 30.44 in 10.0 mi SW 12.7 mph - N/A   Mostly Cloudy
8:19 AM 17.6 °F 3.7 °F 10.4 °F 73% 30.44 in 10.0 mi SW 13.8 mph - N/A   Scattered Clouds
8:39 AM 19.4 °F 7.2 °F 12.2 °F 74% 30.45 in 10.0 mi SW 11.5 mph - N/A   Clear
9:08 AM 19.4 °F 8.6 °F 12.2 °F 74% 30.47 in 10.0 mi SW 9.2 mph - N/A   Clear
9:28 AM 19.4 °F 7.2 °F 12.2 °F 74% 30.47 in 10.0 mi SW 11.5 mph - N/A   Clear
9:48 AM 21.2 °F 9.5 °F 12.2 °F 68% 30.47 in 10.0 mi SW 11.5 mph - N/A   Scattered Clouds
10:08 AM 21.2 °F 9.5 °F 14.0 °F 74% 30.48 in 10.0 mi SW 11.5 mph 16.1 mph N/A   Clear
10:28 AM 23.0 °F 11.7 °F 14.0 °F 68% 30.48 in 10.0 mi SW 11.5 mph - N/A   Clear
10:48 AM 23.0 °F 10.6 °F 14.0 °F 68% 30.47 in 10.0 mi SW 13.8 mph - N/A   Clear
11:08 AM 23.0 °F 11.1 °F 14.0 °F 68% 30.47 in 10.0 mi SSW 12.7 mph - N/A   Clear
11:28 AM 23.0 °F 10.6 °F 14.0 °F 68% 30.47 in 10.0 mi SSW 13.8 mph 18.4 mph N/A   Clear
11:48 AM 24.8 °F 13.4 °F 14.0 °F 64% 30.46 in 10.0 mi SSW 12.7 mph 16.1 mph N/A   Clear
12:08 PM 24.8 °F 14.0 °F 15.8 °F 69% 30.45 in 10.0 mi SSW 11.5 mph - N/A   Clear
12:28 PM 23.0 °F 12.4 °F 14.0 °F 68% 30.44 in 10.0 mi SSW 10.4 mph 16.1 mph N/A   Clear
12:48 PM 24.8 °F 14.0 °F 14.0 °F 64% 30.44 in 10.0 mi SW 11.5 mph 17.3 mph N/A   Clear
1:08 PM 24.8 °F 12.9 °F 15.8 °F 69% 30.43 in 10.0 mi SW 13.8 mph 17.3 mph N/A   Clear
1:28 PM 24.8 °F 14.0 °F 15.8 °F 69% 30.43 in 10.0 mi SSW 11.5 mph 17.3 mph N/A   Clear
1:48 PM 24.8 °F 15.3 °F 15.8 °F 69% 30.42 in 10.0 mi SW 9.2 mph 16.1 mph N/A   Clear
2:08 PM 26.6 °F 16.8 °F 15.8 °F 64% 30.42 in 10.0 mi SW 10.4 mph 17.3 mph N/A   Clear
2:28 PM 24.8 °F 14.0 °F 15.8 °F 69% 30.41 in 10.0 mi SSW 11.5 mph - N/A   Clear
2:48 PM 26.6 °F 17.5 °F 15.8 °F 64% 30.42 in 10.0 mi SW 9.2 mph - N/A   Clear
3:08 PM 24.8 °F 12.9 °F 15.8 °F 69% 30.42 in 10.0 mi SW 13.8 mph - N/A   Clear
3:28 PM 26.6 °F 17.5 °F 15.8 °F 64% 30.42 in 10.0 mi SW 9.2 mph 17.3 mph N/A   Clear
3:48 PM 24.8 °F 14.0 °F 15.8 °F 69% 30.42 in 10.0 mi SW 11.5 mph 18.4 mph N/A   Clear
4:08 PM 24.8 °F 16.9 °F 14.0 °F 64% 30.42 in 10.0 mi SW 6.9 mph - N/A   Clear
4:28 PM 23.0 °F 11.1 °F 14.0 °F 68% 30.42 in 10.0 mi SSW 12.7 mph - N/A   Clear
4:48 PM 21.2 °F 8.9 °F 14.0 °F 74% 30.43 in 10.0 mi SW 12.7 mph - N/A   Clear
5:08 PM 21.2 °F 9.5 °F 12.2 °F 68% 30.43 in 10.0 mi SW 11.5 mph - N/A   Clear
5:28 PM 19.4 °F 7.2 °F 12.2 °F 74% 30.43 in 10.0 mi SW 11.5 mph - N/A   Clear
5:48 PM 19.4 °F 6.6 °F 12.2 °F 74% 30.43 in 10.0 mi SW 12.7 mph - N/A   Clear
6:08 PM 17.6 °F 3.7 °F 12.2 °F 79% 30.43 in 10.0 mi SW 13.8 mph - N/A   Clear
6:28 PM 17.6 °F 3.2 °F 12.2 °F 79% 30.43 in 10.0 mi SW 15.0 mph - N/A   Clear
6:48 PM 17.6 °F 2.2 °F 12.2 °F 79% 30.43 in 10.0 mi SW 17.3 mph - N/A   Clear
7:08 PM 17.6 °F 1.7 °F 12.2 °F 79% 30.43 in 10.0 mi SW 18.4 mph - N/A   Clear
7:28 PM 17.6 °F 1.7 °F 10.4 °F 73% 30.43 in 10.0 mi SW 18.4 mph - N/A   Clear
8:08 PM 15.8 °F -0.2 °F 10.4 °F 79% 30.43 in 10.0 mi SW 17.3 mph - N/A   Clear
8:28 PM 15.8 °F -0.2 °F 10.4 °F 79% 30.43 in 10.0 mi SW 17.3 mph - N/A   Clear
9:05 PM 15.8 °F 0.3 °F 10.4 °F 79% 30.43 in 10.0 mi SW 16.1 mph - N/A   Clear
9:28 PM 15.8 °F 0.9 °F 10.4 °F 79% 30.43 in 10.0 mi SW 15.0 mph - N/A   Clear
9:48 PM 15.8 °F 0.9 °F 10.4 °F 79% 30.43 in 10.0 mi SW 15.0 mph - N/A   Clear
10:06 PM 15.8 °F 0.3 °F 10.4 °F 79% 30.43 in 10.0 mi SW 16.1 mph - N/A   Clear
10:28 PM 15.8 °F 0.3 °F 10.4 °F 79% 30.42 in 10.0 mi SW 16.1 mph - N/A   Clear
10:46 PM 14.0 °F -2.0 °F 10.4 °F 86% 30.42 in 10.0 mi SW 16.1 mph - N/A   Clear
11:08 PM 14.0 °F -2.5 °F 10.4 °F 86% 30.42 in 10.0 mi SW 17.3 mph - N/A   Clear
11:25 PM 14.0 °F -2.0 °F 10.4 °F 86% 30.41 in 10.0 mi SW 16.1 mph - N/A   Clear
11:45 PM 14.0 °F -2.0 °F 10.4 °F 86% 30.41 in 10.0 mi SW 16.1 mph - N/A   Clear